createdAt,value
2018-09-13T00:02:27.018Z,13.20
2018-09-13T00:04:55.485Z,12.03
2018-09-13T00:07:23.990Z,11.33
2018-09-13T00:09:52.601Z,11.50
2018-09-13T00:12:21.064Z,11.37
2018-09-13T00:14:49.589Z,13.73
2018-09-13T00:17:18.113Z,13.07
2018-09-13T00:19:48.127Z,12.10
2018-09-13T00:22:16.638Z,12.33
2018-09-13T00:24:45.368Z,11.93
2018-09-13T00:27:13.813Z,12.80
2018-09-13T00:29:42.352Z,11.87
2018-09-13T00:32:10.848Z,11.93
2018-09-13T00:34:39.399Z,11.67
2018-09-13T00:37:08.000Z,13.10
2018-09-13T00:39:36.476Z,11.47
2018-09-13T00:42:05.008Z,11.60
2018-09-13T00:44:33.555Z,13.17
2018-09-13T00:47:02.065Z,13.77
2018-09-13T00:49:30.553Z,12.50
2018-09-13T00:51:59.087Z,12.67
2018-09-13T00:54:27.593Z,11.90
2018-09-13T00:56:56.058Z,13.03
2018-09-13T00:59:25.263Z,14.93
2018-09-13T01:01:54.713Z,14.00
2018-09-13T01:04:23.206Z,12.23
2018-09-13T01:06:51.684Z,12.47
2018-09-13T01:09:21.092Z,14.07
2018-09-13T01:11:49.540Z,12.73
2018-09-13T01:14:18.105Z,13.23
2018-09-13T01:16:47.549Z,13.47
2018-09-13T01:19:16.108Z,13.37
2018-09-13T01:21:44.587Z,14.33
2018-09-13T01:24:13.095Z,13.13
2018-09-13T01:26:41.596Z,14.70
2018-09-13T01:29:10.613Z,14.73
2018-09-13T01:31:39.283Z,14.63
2018-09-13T01:34:07.736Z,13.57
2018-09-13T01:36:37.004Z,14.47
2018-09-13T01:39:08.185Z,13.97
2018-09-13T01:41:36.858Z,12.60
2018-09-13T01:44:05.554Z,14.67
2018-09-13T01:46:34.130Z,13.70
2018-09-13T01:49:03.557Z,14.40
2018-09-13T01:51:32.055Z,14.90
2018-09-13T01:54:00.568Z,13.87
2018-09-13T01:56:29.108Z,14.07
2018-09-13T01:58:58.137Z,13.47
2018-09-13T02:01:26.644Z,13.63
2018-09-13T02:03:55.514Z,13.33
2018-09-13T02:06:23.949Z,13.73
2018-09-13T02:08:52.432Z,15.37
2018-09-13T02:11:21.034Z,14.27
2018-09-13T02:13:50.065Z,13.67
2018-09-13T02:16:18.570Z,13.47
2018-09-13T02:18:47.140Z,12.90
2018-09-13T02:21:15.695Z,14.90
2018-09-13T02:23:44.735Z,15.77
2018-09-13T02:26:13.499Z,14.53
2018-09-13T02:28:42.296Z,15.57
2018-09-13T02:31:10.765Z,15.67
2018-09-13T02:33:39.282Z,14.57
2018-09-13T02:36:07.776Z,14.37
2018-09-13T02:38:36.261Z,13.47
2018-09-13T02:41:04.807Z,14.70
2018-09-13T02:43:33.304Z,14.93
2018-09-13T02:46:01.928Z,14.40
2018-09-13T02:48:30.450Z,13.63
2018-09-13T02:50:59.430Z,13.47
2018-09-13T02:53:27.927Z,15.37
2018-09-13T02:55:57.049Z,14.00
2018-09-13T02:58:25.592Z,12.97
2018-09-13T03:00:54.112Z,13.00
2018-09-13T03:03:22.579Z,13.77
2018-09-13T03:05:51.187Z,13.40
2018-09-13T03:08:19.762Z,12.67
2018-09-13T03:10:48.235Z,13.13
2018-09-13T03:13:16.743Z,12.87
2018-09-13T03:15:45.814Z,12.53
2018-09-13T03:18:14.370Z,13.13
2018-09-13T03:20:43.622Z,13.70
2018-09-13T03:23:12.145Z,12.90
2018-09-13T03:25:40.667Z,13.57
2018-09-13T03:28:09.194Z,14.13
2018-09-13T03:30:38.315Z,13.07
2018-09-13T03:33:07.000Z,12.33
2018-09-13T03:35:35.531Z,12.43
2018-09-13T03:38:04.109Z,13.10
2018-09-13T03:40:32.575Z,13.73
2018-09-13T03:43:01.147Z,14.13
2018-09-13T03:45:29.695Z,14.53
2018-09-13T03:47:58.260Z,13.47
2018-09-13T03:50:26.791Z,13.80
2018-09-13T03:52:55.299Z,14.50
2018-09-13T03:55:23.800Z,13.17
2018-09-13T03:57:52.329Z,13.20
2018-09-13T04:00:20.935Z,14.40
2018-09-13T04:02:49.520Z,14.90
2018-09-13T04:05:18.062Z,13.37
2018-09-13T04:07:46.526Z,14.03
2018-09-13T04:10:14.995Z,13.60
2018-09-13T04:12:43.568Z,14.47
2018-09-13T04:15:12.050Z,12.83
2018-09-13T04:17:40.543Z,13.07
2018-09-13T04:20:09.156Z,12.57
2018-09-13T04:22:37.705Z,12.97
2018-09-13T04:25:06.227Z,13.83
2018-09-13T04:27:34.687Z,13.60
2018-09-13T04:30:03.199Z,13.80
2018-09-13T04:32:31.741Z,13.00
2018-09-13T04:35:00.253Z,13.07
2018-09-13T04:37:28.832Z,13.77
2018-09-13T04:39:57.510Z,14.30
2018-09-13T04:42:26.069Z,13.37
2018-09-13T04:44:54.569Z,13.37
2018-09-13T04:47:23.704Z,14.27
2018-09-13T04:49:52.244Z,13.10
2018-09-13T04:52:20.816Z,13.53
2018-09-13T04:54:49.327Z,13.83
2018-09-13T04:57:17.867Z,13.00
2018-09-13T04:59:46.465Z,13.90
2018-09-13T05:02:15.597Z,13.37
2018-09-13T05:04:44.108Z,13.77
2018-09-13T05:07:13.447Z,12.90
2018-09-13T05:09:41.958Z,13.53
2018-09-13T05:12:10.504Z,14.20
2018-09-13T05:14:39.002Z,14.23
2018-09-13T05:17:07.592Z,13.87
2018-09-13T05:19:36.085Z,13.90
2018-09-13T05:22:04.648Z,13.37
2018-09-13T05:24:33.126Z,14.40
2018-09-13T05:27:01.645Z,13.80
2018-09-13T05:29:30.144Z,13.90
2018-09-13T05:31:58.633Z,14.50
2018-09-13T05:34:27.613Z,14.00
2018-09-13T05:36:56.936Z,14.63
2018-09-13T05:39:25.459Z,14.10
2018-09-13T05:41:54.036Z,15.43
2018-09-13T05:44:22.497Z,14.60
2018-09-13T05:46:51.056Z,15.23
2018-09-13T05:49:19.561Z,14.27
2018-09-13T05:51:48.092Z,16.90
2018-09-13T05:54:16.612Z,16.57
2018-09-13T05:56:47.854Z,14.97
2018-09-13T05:59:17.513Z,15.33
2018-09-13T06:01:46.422Z,15.03
2018-09-13T06:04:14.941Z,14.57
2018-09-13T06:06:43.427Z,14.13
2018-09-13T06:09:11.885Z,14.07
2018-09-13T06:11:40.392Z,16.13
2018-09-13T06:14:08.877Z,16.73
2018-09-13T06:16:37.725Z,17.07
2018-09-13T06:19:06.300Z,16.10
2018-09-13T06:21:34.765Z,15.97
2018-09-13T06:24:03.504Z,15.27
2018-09-13T06:26:32.074Z,15.07
2018-09-13T06:29:00.562Z,15.17
2018-09-13T06:31:29.075Z,15.70
2018-09-13T06:33:57.597Z,15.07
2018-09-13T06:36:26.137Z,15.97
2018-09-13T06:38:54.637Z,18.80
2018-09-13T06:41:23.101Z,19.70
2018-09-13T06:43:51.744Z,18.40
2018-09-13T06:46:20.256Z,17.60
2018-09-13T06:48:48.811Z,17.57
2018-09-13T06:51:17.364Z,16.23
2018-09-13T06:53:46.483Z,16.60
2018-09-13T06:56:14.980Z,18.97
2018-09-13T06:58:43.523Z,21.50
2018-09-13T07:01:12.772Z,21.70
2018-09-13T07:03:41.564Z,24.43
2018-09-13T07:06:10.077Z,25.47
2018-09-13T07:08:39.239Z,25.17
2018-09-13T07:11:07.806Z,20.83
2018-09-13T07:13:36.462Z,20.37
2018-09-13T07:16:05.544Z,20.03
2018-09-13T07:18:34.075Z,21.20
2018-09-13T07:21:03.481Z,21.23
2018-09-13T07:23:32.019Z,20.60
2018-09-13T07:26:00.436Z,22.27
2018-09-13T07:28:28.981Z,21.23
2018-09-13T07:30:57.634Z,19.20
2018-09-13T07:33:26.775Z,21.97
2018-09-13T07:35:55.249Z,23.00
2018-09-13T07:38:24.606Z,23.73
2018-09-13T07:40:53.734Z,22.17
2018-09-13T07:43:22.351Z,22.43
2018-09-13T07:45:50.995Z,21.57
2018-09-13T07:48:20.436Z,19.23
2018-09-13T07:50:48.926Z,20.00
2018-09-13T07:53:17.488Z,17.93
2018-09-13T07:55:46.033Z,20.10
2018-09-13T07:58:14.609Z,20.43
2018-09-13T08:00:43.126Z,18.23
2018-09-13T08:03:12.346Z,20.10
2018-09-13T08:05:41.578Z,19.00
2018-09-13T08:08:10.137Z,23.03
2018-09-13T08:10:38.701Z,20.87
2018-09-13T08:13:07.270Z,19.97
2018-09-13T08:15:35.831Z,24.33
2018-09-13T08:18:04.544Z,16.63
2018-09-13T08:20:33.332Z,14.57
2018-09-13T08:23:02.503Z,15.10
2018-09-13T08:25:31.521Z,14.87
2018-09-13T08:28:00.177Z,16.40
2018-09-13T08:30:28.692Z,13.70
2018-09-13T08:32:58.413Z,16.50
2018-09-13T08:35:27.941Z,15.07
2018-09-13T08:37:57.198Z,14.30
2018-09-13T08:40:25.795Z,15.57
2018-09-13T08:42:54.447Z,15.53
2018-09-13T08:45:23.164Z,14.80
2018-09-13T08:47:52.389Z,15.10
2018-09-13T08:50:20.921Z,16.27
2018-09-13T08:52:50.373Z,15.37
2018-09-13T08:55:19.081Z,14.27
2018-09-13T08:57:47.654Z,13.07
2018-09-13T09:00:16.211Z,15.67
2018-09-13T09:02:44.687Z,15.40
2018-09-13T09:05:13.400Z,14.73
2018-09-13T09:07:42.170Z,12.60
2018-09-13T09:10:10.649Z,12.73
2018-09-13T09:12:39.132Z,14.30
2018-09-13T09:15:07.632Z,14.77
2018-09-13T09:17:36.251Z,14.87
2018-09-13T09:20:04.877Z,14.87
2018-09-13T09:22:33.404Z,18.20
2018-09-13T09:25:02.557Z,16.17
2018-09-13T09:27:31.175Z,17.87
2018-09-13T09:29:59.721Z,19.77
2018-09-13T09:32:28.769Z,19.87
2018-09-13T09:34:57.315Z,21.50
2018-09-13T09:37:26.999Z,20.57
2018-09-13T09:39:55.540Z,21.23
2018-09-13T09:42:24.903Z,16.47
2018-09-13T09:44:55.057Z,18.30
2018-09-13T09:47:23.556Z,17.53
2018-09-13T09:49:52.168Z,13.37
2018-09-13T09:52:21.619Z,13.37
2018-09-13T09:54:50.088Z,14.27
2018-09-13T09:57:18.641Z,13.40
2018-09-13T09:59:47.244Z,11.70
2018-09-13T10:02:21.831Z,12.40
2018-09-13T10:04:50.696Z,12.17
2018-09-13T10:07:20.632Z,11.17
2018-09-13T10:09:49.606Z,13.07
2018-09-13T10:12:18.163Z,14.83
2018-09-13T10:14:51.991Z,13.03
2018-09-13T10:17:25.899Z,15.07
2018-09-13T10:19:59.652Z,14.60
2018-09-13T10:22:33.512Z,15.03
2018-09-13T10:25:08.066Z,16.33
2018-09-13T10:27:42.708Z,15.53
2018-09-13T10:30:16.506Z,15.33
2018-09-13T10:32:50.233Z,14.43
2018-09-13T10:35:23.963Z,14.60
2018-09-13T10:37:58.645Z,15.30
2018-09-13T10:40:32.562Z,15.83
2018-09-13T10:43:06.395Z,14.90
2018-09-13T10:45:40.804Z,16.23
2018-09-13T10:48:14.975Z,16.97
2018-09-13T10:52:50.608Z,16.90
2018-09-13T10:55:20.114Z,13.57
2018-09-13T10:57:48.920Z,13.53
2018-09-13T11:00:17.472Z,12.30
2018-09-13T11:02:46.116Z,11.23
2018-09-13T11:05:14.858Z,11.90
2018-09-13T11:07:43.499Z,13.77
2018-09-13T11:10:12.058Z,13.33
2018-09-13T11:12:45.729Z,14.30
2018-09-13T11:15:24.152Z,13.87
2018-09-13T11:17:54.456Z,13.90
2018-09-13T11:20:22.958Z,13.97
2018-09-13T11:22:54.509Z,11.80
2018-09-13T11:25:54.021Z,10.10
2018-09-13T11:28:22.561Z,12.37
2018-09-13T11:30:56.205Z,15.27
2018-09-13T11:33:24.700Z,14.97
2018-09-13T11:35:53.249Z,14.40
2018-09-13T11:38:21.864Z,11.43
2018-09-13T11:40:50.552Z,12.67
2018-09-13T11:43:19.029Z,12.83
2018-09-13T11:45:48.300Z,13.27
2018-09-13T11:48:16.921Z,12.63
2018-09-13T11:50:45.562Z,12.97
2018-09-13T11:53:14.127Z,10.60
2018-09-13T11:55:44.146Z,10.00
2018-09-13T11:58:14.952Z,8.57
2018-09-13T12:00:43.608Z,9.77
2018-09-13T12:03:13.203Z,9.20
2018-09-13T12:05:42.274Z,8.97
2018-09-13T12:08:10.801Z,9.67
2018-09-13T12:10:39.833Z,9.63
2018-09-13T12:13:17.871Z,9.53
2018-09-13T12:15:46.704Z,9.63
2018-09-13T12:18:15.289Z,8.50
2018-09-13T12:20:43.907Z,8.40
2018-09-13T12:23:12.519Z,10.60
2018-09-13T12:25:41.068Z,12.20
2018-09-13T12:28:09.660Z,10.70
2018-09-13T12:30:38.164Z,10.47
2018-09-13T12:33:06.644Z,11.37
2018-09-13T12:35:37.381Z,10.87
2018-09-13T12:38:08.156Z,11.27
2018-09-13T12:40:41.412Z,11.00
2018-09-13T12:43:13.125Z,12.20
2018-09-13T12:45:42.670Z,12.27
2018-09-13T12:48:11.228Z,11.10
2018-09-13T12:50:39.829Z,10.30
2018-09-13T12:53:08.397Z,10.80
2018-09-13T12:55:42.288Z,10.10
2018-09-13T12:58:10.759Z,9.57
2018-09-13T13:00:39.379Z,9.77
2018-09-13T13:03:07.927Z,9.80
2018-09-13T13:05:37.394Z,9.57
2018-09-13T13:08:05.903Z,8.70
2018-09-13T13:10:34.494Z,9.47
2018-09-13T13:13:03.003Z,7.63
2018-09-13T13:15:32.258Z,9.17
2018-09-13T13:18:00.833Z,10.33
2018-09-13T13:20:29.977Z,9.80
2018-09-13T13:22:59.357Z,10.53
2018-09-13T13:25:27.939Z,10.47
2018-09-13T13:27:57.281Z,10.43
2018-09-13T13:30:26.111Z,9.37
2018-09-13T13:32:54.746Z,9.30
2018-09-13T13:35:23.248Z,9.53
2018-09-13T13:37:52.330Z,10.27
2018-09-13T13:40:21.084Z,7.77
2018-09-13T13:42:49.655Z,8.40
2018-09-13T13:45:18.838Z,8.53
2018-09-13T13:47:47.335Z,8.97
2018-09-13T13:50:15.824Z,8.23
2018-09-13T13:52:45.015Z,7.90
2018-09-13T13:55:13.739Z,9.80
2018-09-13T13:57:42.326Z,11.47
2018-09-13T14:00:11.676Z,14.70
2018-09-13T14:02:40.338Z,14.77
2018-09-13T14:05:08.907Z,15.37
2018-09-13T14:07:37.440Z,15.53
2018-09-13T14:10:06.150Z,13.70
2018-09-13T14:12:34.738Z,15.70
2018-09-13T14:15:03.232Z,16.80
2018-09-13T14:17:31.751Z,16.20
2018-09-13T14:20:00.289Z,12.40
2018-09-13T14:22:29.104Z,15.17
2018-09-13T14:24:57.689Z,15.23
2018-09-13T14:27:26.255Z,14.93
2018-09-13T14:29:54.828Z,16.33
2018-09-13T14:32:23.969Z,16.00
2018-09-13T14:34:52.475Z,14.30
2018-09-13T14:37:20.967Z,15.87
2018-09-13T14:39:49.557Z,16.73
2018-09-13T14:42:18.091Z,15.83
2018-09-13T14:44:46.662Z,14.03
2018-09-13T14:47:15.165Z,15.67
2018-09-13T14:49:43.817Z,16.50
2018-09-13T14:52:12.363Z,15.67
2018-09-13T14:54:40.884Z,17.30
2018-09-13T14:57:09.712Z,16.00
2018-09-13T14:59:38.224Z,16.00
2018-09-13T15:02:06.751Z,15.40
2018-09-13T15:04:35.609Z,17.20
2018-09-13T15:07:04.365Z,15.47
2018-09-13T15:09:33.312Z,13.67
2018-09-13T15:12:01.964Z,14.13
2018-09-13T15:14:30.585Z,14.77
2018-09-13T15:16:59.133Z,12.10
2018-09-13T15:19:27.737Z,14.97
2018-09-13T15:21:56.384Z,16.23
2018-09-13T15:24:25.041Z,14.00
2018-09-13T15:26:53.518Z,15.77
2018-09-13T15:29:22.012Z,15.53
2018-09-13T15:31:51.335Z,18.20
2018-09-13T15:34:20.059Z,14.80
2018-09-13T15:36:48.584Z,17.17
2018-09-13T15:39:17.222Z,18.20
2018-09-13T15:41:45.737Z,14.93
2018-09-13T15:44:14.473Z,17.70
2018-09-13T15:46:42.999Z,17.53
2018-09-13T15:49:11.614Z,20.17
2018-09-13T15:51:40.115Z,19.13
2018-09-13T15:54:08.728Z,19.93
2018-09-13T15:56:37.368Z,20.87
2018-09-13T15:59:06.270Z,18.63
2018-09-13T16:01:34.816Z,19.00
2018-09-13T16:04:03.394Z,19.50
2018-09-13T16:06:32.661Z,26.53
2018-09-13T16:09:02.564Z,22.40
2018-09-13T16:11:32.009Z,19.53
2018-09-13T16:14:02.216Z,19.50
2018-09-13T16:16:34.825Z,19.80
2018-09-13T16:30:16.374Z,17.27
2018-09-13T16:32:46.900Z,21.47
2018-09-13T16:35:15.870Z,16.23
2018-09-13T16:37:53.533Z,16.37
2018-09-13T16:40:27.401Z,15.53
2018-09-13T16:43:01.778Z,15.47
2018-09-13T16:45:32.343Z,15.17
2018-09-13T16:48:03.432Z,15.20
2018-09-13T16:50:33.157Z,15.73
2018-09-13T16:53:03.958Z,15.60
2018-09-13T16:55:34.866Z,15.97
2018-09-13T16:58:04.402Z,16.03
2018-09-13T17:00:34.839Z,16.90
2018-09-13T17:03:04.970Z,17.33
2018-09-13T17:05:34.757Z,17.00
2018-09-13T17:08:08.622Z,15.67
2018-09-13T17:10:39.053Z,17.63
2018-09-13T17:13:09.160Z,17.03
2018-09-13T17:15:38.729Z,16.07
2018-09-13T17:18:11.629Z,16.33
2018-09-13T17:20:42.395Z,18.13
2018-09-13T17:23:15.216Z,17.23
2018-09-13T17:25:54.291Z,17.17
2018-09-13T17:28:29.192Z,17.10
2018-09-13T17:30:59.493Z,17.53
2018-09-13T17:33:34.756Z,18.17
2018-09-13T17:36:09.006Z,18.60
2018-09-13T17:38:45.824Z,18.20
2018-09-13T17:41:17.356Z,18.87
2018-09-13T17:44:01.220Z,17.13
2018-09-13T17:46:47.105Z,17.73
2018-09-13T17:49:35.711Z,18.23
2018-09-13T17:52:08.708Z,18.90
2018-09-13T17:57:43.591Z,19.17
2018-09-13T18:00:14.181Z,19.20
2018-09-13T18:02:43.358Z,18.03
2018-09-13T18:05:11.934Z,18.20
2018-09-13T18:07:40.531Z,18.40
2018-09-13T18:10:09.477Z,18.40
2018-09-13T18:12:38.203Z,19.37
2018-09-13T18:15:08.016Z,21.13
2018-09-13T18:17:36.814Z,21.40
2018-09-13T18:20:05.413Z,21.63
2018-09-13T18:22:34.404Z,23.50
2018-09-13T18:25:03.072Z,22.43
2018-09-13T18:27:31.842Z,22.47
2018-09-13T18:30:00.423Z,23.40
2018-09-13T18:32:29.065Z,24.77
2018-09-13T18:34:57.642Z,25.00
2018-09-13T18:37:26.147Z,24.30
2018-09-13T18:39:54.898Z,25.13
2018-09-13T18:42:24.743Z,23.63
2018-09-13T18:44:53.455Z,25.83
2018-09-13T18:47:21.972Z,26.20
2018-09-13T18:49:51.290Z,24.13
2018-09-13T18:52:20.625Z,24.23
2018-09-13T18:54:49.788Z,21.27
2018-09-13T18:57:19.095Z,23.17
2018-09-13T18:59:48.244Z,24.37
2018-09-13T19:02:16.756Z,23.23
2018-09-13T19:04:45.993Z,22.17
2018-09-13T19:07:15.103Z,24.23
2018-09-13T19:09:44.313Z,22.83
2018-09-13T19:12:13.195Z,23.10
2018-09-13T19:14:41.829Z,25.00
2018-09-13T19:17:10.409Z,26.50
2018-09-13T19:19:38.899Z,25.93
2018-09-13T19:22:08.356Z,26.10
2018-09-13T19:24:37.312Z,25.23
2018-09-13T19:27:05.906Z,25.70
2018-09-13T19:29:34.419Z,26.23
2018-09-13T19:32:02.929Z,25.30
2018-09-13T19:34:32.875Z,24.47
2018-09-13T19:37:02.200Z,25.73
2018-09-13T19:39:30.732Z,24.97
2018-09-13T19:42:00.042Z,24.77
2018-09-13T19:44:28.523Z,24.93
2018-09-13T19:46:58.334Z,23.57
2018-09-13T19:49:26.883Z,24.83
2018-09-13T19:51:55.470Z,25.47
2018-09-13T19:54:23.979Z,26.07
2018-09-13T19:56:52.763Z,25.63
2018-09-13T19:59:21.423Z,25.23
2018-09-13T20:01:51.434Z,24.10
2018-09-13T20:04:20.100Z,26.27
2018-09-13T20:06:48.952Z,23.83
2018-09-13T20:09:17.579Z,25.83
2018-09-13T20:11:47.444Z,27.80
2018-09-13T20:14:16.650Z,27.80
2018-09-13T20:16:45.319Z,27.50
2018-09-13T20:19:14.541Z,27.23
2018-09-13T20:21:43.176Z,26.80
2018-09-13T20:24:11.684Z,27.37
2018-09-13T20:26:40.303Z,27.83
2018-09-13T20:29:09.365Z,27.83
2018-09-13T20:31:37.916Z,27.93
2018-09-13T20:34:06.610Z,27.27
2018-09-13T20:36:35.175Z,29.33
2018-09-13T20:39:04.737Z,28.03
2018-09-13T20:41:34.066Z,27.63
2018-09-13T20:44:02.643Z,29.13
2018-09-13T20:47:01.571Z,26.77
2018-09-13T20:49:30.973Z,25.20
2018-09-13T20:51:59.548Z,24.37
2018-09-13T20:54:28.059Z,25.53
2018-09-13T20:56:57.630Z,25.87
2018-09-13T20:59:26.117Z,24.43
2018-09-13T21:01:55.894Z,26.43
2018-09-13T21:04:24.993Z,24.83
2018-09-13T21:06:53.631Z,25.17
2018-09-13T21:09:22.726Z,44.63
2018-09-13T21:11:51.281Z,26.33
2018-09-13T21:14:20.607Z,26.03
2018-09-13T21:16:49.745Z,27.73
2018-09-13T21:19:18.825Z,25.87
2018-09-13T21:21:48.412Z,24.50
2018-09-13T21:24:17.062Z,26.40
2018-09-13T21:26:45.575Z,25.87
2018-09-13T21:29:14.121Z,25.80
2018-09-13T21:31:42.963Z,25.83
2018-09-13T21:34:11.747Z,27.03
2018-09-13T21:36:40.266Z,26.57
2018-09-13T21:39:10.495Z,26.47
2018-09-13T21:41:38.967Z,23.87
2018-09-13T21:44:07.685Z,26.73
2018-09-13T21:46:36.159Z,27.67
2018-09-13T21:49:04.664Z,26.57
2018-09-13T21:51:33.199Z,27.67
2018-09-13T21:54:01.706Z,25.90
2018-09-13T21:56:30.257Z,28.03
2018-09-13T21:58:58.752Z,27.23
2018-09-13T22:01:27.299Z,27.93
2018-09-13T22:03:55.875Z,27.80
2018-09-13T22:06:25.083Z,25.50
2018-09-13T22:08:54.035Z,27.07
2018-09-13T22:11:22.592Z,25.37
2018-09-13T22:13:51.692Z,24.77
2018-09-13T22:16:20.231Z,24.77
2018-09-13T22:18:48.782Z,26.27
2018-09-13T22:21:17.575Z,22.93
2018-09-13T22:23:46.087Z,24.40
2018-09-13T22:26:14.855Z,25.67
2018-09-13T22:28:43.359Z,23.53
2018-09-13T22:31:11.879Z,23.43
2018-09-13T22:33:40.416Z,23.53
2018-09-13T22:36:08.887Z,25.23
2018-09-13T22:38:37.707Z,24.13
2018-09-13T22:41:06.347Z,26.30
2018-09-13T22:43:40.076Z,24.23
2018-09-13T22:46:08.578Z,23.90
2018-09-13T22:48:37.195Z,24.17
2018-09-13T22:51:05.717Z,24.60
2018-09-13T22:53:35.005Z,24.67
2018-09-13T22:56:03.424Z,24.83
2018-09-13T22:58:32.652Z,26.23
2018-09-13T23:01:01.264Z,25.47
2018-09-13T23:03:30.437Z,22.97
2018-09-13T23:05:58.935Z,23.60
2018-09-13T23:08:27.521Z,24.53
2018-09-13T23:10:56.157Z,25.67
2018-09-13T23:13:24.980Z,23.97
2018-09-13T23:15:53.574Z,25.07
2018-09-13T23:18:22.096Z,25.10
2018-09-13T23:20:50.704Z,26.63
2018-09-13T23:23:19.432Z,25.27
2018-09-13T23:25:47.992Z,24.13
2018-09-13T23:28:16.717Z,24.07
2018-09-13T23:30:46.255Z,24.70
2018-09-13T23:33:14.927Z,25.83
2018-09-13T23:35:43.450Z,25.17
2018-09-13T23:38:11.959Z,27.13
2018-09-13T23:40:41.110Z,24.33
2018-09-13T23:43:09.612Z,25.83
2018-09-13T23:45:38.116Z,26.40
2018-09-13T23:48:06.608Z,25.17
2018-09-13T23:50:35.140Z,24.80
2018-09-13T23:53:03.694Z,24.93
2018-09-13T23:55:32.179Z,23.47
2018-09-13T23:58:01.539Z,25.10
